createdAt,value
2022-12-11T00:00:05.581Z,100245.06
2022-12-11T00:01:09.800Z,100245.47
2022-12-11T00:02:14.147Z,100246.91
2022-12-11T00:03:18.652Z,100246.4
2022-12-11T00:04:23.274Z,100244.31
2022-12-11T00:05:27.529Z,100236.02
2022-12-11T00:06:31.757Z,100239.89
2022-12-11T00:07:35.989Z,100245.25
2022-12-11T00:08:40.207Z,100237.77
2022-12-11T00:09:44.417Z,100229.17
2022-12-11T00:10:48.694Z,100235.2
2022-12-11T00:11:52.942Z,100233.45
2022-12-11T00:12:57.143Z,100231.34
2022-12-11T00:14:01.374Z,100231.45
2022-12-11T00:15:05.589Z,100230.11
2022-12-11T00:16:09.954Z,100225.23
2022-12-11T00:17:14.324Z,100223.74
2022-12-11T00:18:18.542Z,100215.05
2022-12-11T00:19:22.750Z,100217.8
2022-12-11T00:20:26.962Z,100222.41
2022-12-11T00:21:31.188Z,100219.62
2022-12-11T00:22:35.395Z,100215.78
2022-12-11T00:23:39.640Z,100219.22
2022-12-11T00:24:43.872Z,100224.65
2022-12-11T00:25:48.148Z,100223.98
2022-12-11T00:26:52.353Z,100221.14
2022-12-11T00:27:56.564Z,100217.55
2022-12-11T00:29:00.755Z,100218.14
2022-12-11T00:30:04.968Z,100216.55
2022-12-11T00:31:09.482Z,100215.12
2022-12-11T00:32:13.805Z,100211.85
2022-12-11T00:33:18.119Z,100211.11
2022-12-11T00:34:22.359Z,100216.47
2022-12-11T00:35:26.605Z,100209.52
2022-12-11T00:36:30.864Z,100213.59
2022-12-11T00:37:35.251Z,100214.8
2022-12-11T00:38:39.594Z,100212.52
2022-12-11T00:39:43.818Z,100211.11
2022-12-11T00:40:48.019Z,100220.83
2022-12-11T00:41:52.285Z,100219.41
2022-12-11T00:42:56.505Z,100217.41
2022-12-11T00:44:00.739Z,100216.73
2022-12-11T00:45:04.958Z,100216.66
2022-12-11T00:46:09.334Z,100220.83
2022-12-11T00:47:13.706Z,100219.41
2022-12-11T00:48:18.191Z,100228.52
2022-12-11T00:49:22.418Z,100218.81
2022-12-11T00:50:26.638Z,100222.09
2022-12-11T00:51:30.861Z,100230.69
2022-12-11T00:52:35.119Z,100212.86
2022-12-11T00:53:39.355Z,100212.45
2022-12-11T00:54:43.594Z,100213.64
2022-12-11T00:55:47.832Z,100213.53
2022-12-11T00:56:52.055Z,100209.44
2022-12-11T00:57:56.294Z,100211.86
2022-12-11T00:59:00.515Z,100209.19
2022-12-11T01:00:04.755Z,100211.3
2022-12-11T01:01:09.128Z,100214.8
2022-12-11T01:02:13.534Z,100211.97
2022-12-11T01:03:17.836Z,100211.2
2022-12-11T01:04:22.088Z,100213.13
2022-12-11T01:05:26.306Z,100219
2022-12-11T01:06:30.527Z,100213.2
2022-12-11T01:07:34.746Z,100218.16
2022-12-11T01:08:39.920Z,100220.13
2022-12-11T01:09:44.151Z,100225.48
2022-12-11T01:10:48.614Z,100223.73
2022-12-11T01:11:52.938Z,100222.69
2022-12-11T01:12:57.151Z,100228.53
2022-12-11T01:14:01.385Z,100224.85
2022-12-11T01:15:05.591Z,100218.38
2022-12-11T01:16:09.834Z,100222.14
2022-12-11T01:17:14.068Z,100228.17
2022-12-11T01:18:18.265Z,100222.22
2022-12-11T01:19:22.499Z,100225.16
2022-12-11T01:20:26.727Z,100223
2022-12-11T01:21:30.989Z,100223.23
2022-12-11T01:22:35.227Z,100220.21
2022-12-11T01:23:39.460Z,100230.02
2022-12-11T01:24:43.704Z,100219.05
2022-12-11T01:25:47.947Z,100215.71
2022-12-11T01:26:52.181Z,100222.41
2022-12-11T01:27:56.403Z,100218.98
2022-12-11T01:29:00.643Z,100220.06
2022-12-11T01:30:04.918Z,100216.2
2022-12-11T01:31:09.261Z,100219.06
2022-12-11T01:32:13.663Z,100214.52
2022-12-11T01:33:17.871Z,100213.52
2022-12-11T01:34:22.101Z,100213.96
2022-12-11T01:35:26.364Z,100213.37
2022-12-11T01:36:30.598Z,100212.84
2022-12-11T01:37:34.819Z,100214.63
2022-12-11T01:38:39.082Z,100209.77
2022-12-11T01:39:43.308Z,100221.59
2022-12-11T01:40:52.960Z,100221.33
2022-12-11T01:41:57.186Z,100224.67
2022-12-11T01:43:01.415Z,100222.56
2022-12-11T01:44:05.633Z,100221.22
2022-12-11T01:45:10.723Z,100221.81
2022-12-11T01:46:15.476Z,100219.66
2022-12-11T01:47:19.851Z,100209.09
2022-12-11T01:48:24.138Z,100214.38
2022-12-11T01:49:28.361Z,100212.44
2022-12-11T01:50:32.638Z,100216.97
2022-12-11T01:51:36.873Z,100220.06
2022-12-11T01:52:41.109Z,100227.35
2022-12-11T01:53:45.343Z,100218.98
2022-12-11T01:54:49.547Z,100227.5
2022-12-11T01:55:53.758Z,100224.34
2022-12-11T01:56:57.986Z,100229.95
2022-12-11T01:58:02.260Z,100234.97
2022-12-11T01:59:06.503Z,100232.04
2022-12-11T02:00:10.855Z,100230.95
2022-12-11T02:01:15.187Z,100226.27
2022-12-11T02:02:19.637Z,100232.78
2022-12-11T02:03:24.065Z,100231.19
2022-12-11T02:04:28.284Z,100226.5
2022-12-11T02:05:32.494Z,100225.94
2022-12-11T02:06:36.730Z,100216.91
2022-12-11T02:07:40.962Z,100222.15
2022-12-11T02:08:45.196Z,100211.03
2022-12-11T02:09:49.479Z,100221.33
2022-12-11T02:10:53.717Z,100217.47
2022-12-11T02:11:57.961Z,100215.31
2022-12-11T02:13:02.195Z,100217.47
2022-12-11T02:14:06.398Z,100212.96
2022-12-11T02:15:11.248Z,100209.69
2022-12-11T02:16:16.479Z,100213.55
2022-12-11T02:17:20.775Z,100211.95
2022-12-11T02:18:25.005Z,100215.05
2022-12-11T02:19:29.215Z,100211.36
2022-12-11T02:20:33.450Z,100215.38
2022-12-11T02:21:37.707Z,100207.27
2022-12-11T02:22:41.941Z,100213.7
2022-12-11T02:23:46.173Z,100209.77
2022-12-11T02:24:50.410Z,100208.02
2022-12-11T02:25:54.638Z,100198.31
2022-12-11T02:26:58.911Z,100199.39
2022-12-11T02:28:03.131Z,100204
2022-12-11T02:29:07.352Z,100202.59
2022-12-11T02:30:11.597Z,100203.67
2022-12-11T02:31:15.930Z,100203.67
2022-12-11T02:32:20.344Z,100202.74
2022-12-11T02:33:24.666Z,100198.31
2022-12-11T02:34:28.874Z,100203.59
2022-12-11T02:35:33.165Z,100192.63
2022-12-11T02:36:37.421Z,100197.23
2022-12-11T02:37:41.706Z,100205.67
2022-12-11T02:38:45.940Z,100201.07
2022-12-11T02:39:50.192Z,100204.27
2022-12-11T02:40:54.404Z,100202.66
2022-12-11T02:41:58.610Z,100204.86
2022-12-11T02:43:02.843Z,100195.72
2022-12-11T02:44:08.131Z,100193.48
2022-12-11T02:45:12.937Z,100188.95
2022-12-11T02:46:17.370Z,100185.34
2022-12-11T02:47:21.711Z,100181.92
2022-12-11T02:48:25.924Z,100178.91
2022-12-11T02:49:30.138Z,100183.7
2022-12-11T02:50:34.404Z,100182.59
2022-12-11T02:51:38.615Z,100184.19
2022-12-11T02:52:42.841Z,100185.12
2022-12-11T02:53:47.060Z,100181.33
2022-12-11T02:54:52.327Z,100181.92
2022-12-11T02:55:58.900Z,100176.91
2022-12-11T02:57:03.133Z,100179.77
2022-12-11T02:58:07.358Z,100181.59
2022-12-11T02:59:11.566Z,100186.87
2022-12-11T03:00:15.798Z,100185.53
2022-12-11T03:01:20.107Z,100183.37
2022-12-11T03:02:24.558Z,100188.28
2022-12-11T03:03:28.925Z,100184.6
2022-12-11T03:04:33.158Z,100187.05
2022-12-11T03:05:37.389Z,100186.72
2022-12-11T03:06:41.627Z,100193.48
2022-12-11T03:07:45.979Z,100189.47
2022-12-11T03:08:50.315Z,100197.5
2022-12-11T03:09:54.551Z,100196.08
2022-12-11T03:10:58.768Z,100196.91
2022-12-11T03:12:03.014Z,100203.44
2022-12-11T03:13:07.253Z,100203
2022-12-11T03:14:11.505Z,100203.27
2022-12-11T03:15:15.773Z,100198.91
2022-12-11T03:16:20.111Z,100197.91
2022-12-11T03:17:24.392Z,100195.31
2022-12-11T03:18:28.651Z,100195.23
2022-12-11T03:19:32.887Z,100202.59
2022-12-11T03:20:37.114Z,100200.33
2022-12-11T03:21:41.367Z,100203.44
2022-12-11T03:22:45.571Z,100198.84
2022-12-11T03:23:49.808Z,100193.15
2022-12-11T03:24:54.044Z,100196.16
2022-12-11T03:25:58.294Z,100194.48
2022-12-11T03:27:11.940Z,100197.42
2022-12-11T03:28:16.218Z,100196.16
2022-12-11T03:29:20.474Z,100190.47
2022-12-11T03:30:24.843Z,100195.56
2022-12-11T03:31:29.142Z,100195.83
2022-12-11T03:32:33.355Z,100205.12
2022-12-11T03:33:37.598Z,100205.45
2022-12-11T03:34:41.844Z,100205.6
2022-12-11T03:35:46.080Z,100210.63
2022-12-11T03:36:50.289Z,100200.25
2022-12-11T03:37:54.565Z,100207.61
2022-12-11T03:38:58.802Z,100203.52
2022-12-11T03:40:03.054Z,100202.11
2022-12-11T03:41:07.308Z,100200.77
2022-12-11T03:42:11.533Z,100201.59
2022-12-11T03:43:15.757Z,100197.98
2022-12-11T03:44:19.984Z,100202.85
2022-12-11T03:45:24.217Z,100203.11
2022-12-11T03:46:28.518Z,100201.92
2022-12-11T03:47:32.803Z,100193.89
2022-12-11T03:48:37.018Z,100198.91
2022-12-11T03:49:41.296Z,100193.22
2022-12-11T03:50:45.496Z,100193.15
2022-12-11T03:51:49.706Z,100195.48
2022-12-11T03:52:53.936Z,100192.06
2022-12-11T03:53:58.141Z,100188.28
2022-12-11T03:55:02.431Z,100177.94
2022-12-11T03:56:06.670Z,100175.91
2022-12-11T03:57:10.987Z,100174.34
2022-12-11T03:58:15.214Z,100183.37
2022-12-11T03:59:19.449Z,100181.84
2022-12-11T04:00:23.687Z,100183.3
2022-12-11T04:01:28.053Z,100182.18
2022-12-11T04:02:32.376Z,100180.44
2022-12-11T04:03:36.602Z,100181.17
2022-12-11T04:04:40.967Z,100180.02
2022-12-11T04:05:45.226Z,100180.84
2022-12-11T04:06:49.433Z,100193.55
2022-12-11T04:07:53.737Z,100193.41
2022-12-11T04:08:58.293Z,100187.72
2022-12-11T04:10:02.552Z,100186.37
2022-12-11T04:11:06.785Z,100189.65
2022-12-11T04:12:11.007Z,100189.05
2022-12-11T04:13:15.249Z,100192.66
2022-12-11T04:14:19.480Z,100191.47
2022-12-11T04:15:23.736Z,100188.39
2022-12-11T04:16:28.005Z,100184.38
2022-12-11T04:17:32.218Z,100187.13
2022-12-11T04:18:36.435Z,100186.71
2022-12-11T04:19:40.663Z,100186.64
2022-12-11T04:20:44.888Z,100189.98
2022-12-11T04:21:49.172Z,100186.3
2022-12-11T04:22:53.400Z,100186.37
2022-12-11T04:23:57.629Z,100186.37
2022-12-11T04:25:01.869Z,100183.11
2022-12-11T04:26:06.155Z,100180.62
2022-12-11T04:27:10.431Z,100178.42
2022-12-11T04:28:14.664Z,100178.61
2022-12-11T04:29:18.909Z,100175.75
2022-12-11T04:30:23.181Z,100175.67
2022-12-11T04:31:31.444Z,100172.14
2022-12-11T04:32:35.792Z,100163.22
2022-12-11T04:33:40.168Z,100167.98
2022-12-11T04:34:44.438Z,100163.22
2022-12-11T04:35:48.651Z,100163.89
2022-12-11T04:36:52.906Z,100162.7
2022-12-11T04:37:57.151Z,100160.55
2022-12-11T04:39:01.383Z,100167.57
2022-12-11T04:40:05.660Z,100159.69
2022-12-11T04:41:09.893Z,100155.27
2022-12-11T04:42:14.126Z,100155.75
2022-12-11T04:43:18.355Z,100154.08
2022-12-11T04:44:22.593Z,100148.39
2022-12-11T04:45:26.852Z,100160.28
2022-12-11T04:46:31.205Z,100157.2
2022-12-11T04:47:35.576Z,100145.91
2022-12-11T04:48:39.815Z,100144.23
2022-12-11T04:49:44.056Z,100145.39
2022-12-11T04:50:48.411Z,100152.75
2022-12-11T04:51:52.603Z,100144.31
2022-12-11T04:52:56.890Z,100157.87
2022-12-11T04:54:01.091Z,100161.11
2022-12-11T04:55:05.407Z,100158.95
2022-12-11T04:56:12.547Z,100159.1
2022-12-11T04:57:16.807Z,100151.25
2022-12-11T04:58:21.087Z,100148.58
2022-12-11T04:59:28.356Z,100158.36
2022-12-11T05:00:34.840Z,100149.92
2022-12-11T05:01:39.169Z,100149.25
2022-12-11T05:02:43.623Z,100156.09
2022-12-11T05:03:47.936Z,100150.07
2022-12-11T05:04:52.143Z,100142.81
2022-12-11T05:05:56.379Z,100141.63
2022-12-11T05:07:00.645Z,100144.16
2022-12-11T05:08:05.124Z,100141.03
2022-12-11T05:09:09.434Z,100143.89
2022-12-11T05:10:13.655Z,100142.84
2022-12-11T05:11:17.897Z,100142.59
2022-12-11T05:12:22.185Z,100139.07
2022-12-11T05:13:26.481Z,100133.51
2022-12-11T05:14:30.734Z,100133.98
2022-12-11T05:15:34.930Z,100128.06
2022-12-11T05:16:39.161Z,100130.44
2022-12-11T05:17:43.388Z,100128.52
2022-12-11T05:18:47.630Z,100123.86
2022-12-11T05:19:51.896Z,100129.77
2022-12-11T05:20:56.125Z,100118.63
2022-12-11T05:22:00.373Z,100119.22
2022-12-11T05:23:04.602Z,100121.64
2022-12-11T05:24:08.812Z,100123.69
2022-12-11T05:25:13.782Z,100126.42
2022-12-11T05:26:18.156Z,100124.45
2022-12-11T05:27:22.373Z,100124.42
2022-12-11T05:28:26.576Z,100130.16
2022-12-11T05:29:30.816Z,100128.25
2022-12-11T05:30:35.095Z,100135.17
2022-12-11T05:31:39.432Z,100138.34
2022-12-11T05:32:43.836Z,100133.49
2022-12-11T05:33:48.055Z,100138.5
2022-12-11T05:34:52.302Z,100132.06
2022-12-11T05:35:56.558Z,100135.32
2022-12-11T05:37:00.774Z,100139.59
2022-12-11T05:38:05.048Z,100136.19
2022-12-11T05:39:09.283Z,100142.41
2022-12-11T05:40:13.502Z,100145.66
2022-12-11T05:41:17.741Z,100137.45
2022-12-11T05:42:29.410Z,100138.84
2022-12-11T05:43:33.624Z,100135.06
2022-12-11T05:44:37.913Z,100135.66
2022-12-11T05:45:42.230Z,100136.07
2022-12-11T05:46:46.678Z,100128.92
2022-12-11T05:47:50.943Z,100124.65
2022-12-11T05:48:55.161Z,100121.72
2022-12-11T05:49:59.399Z,100122.08
2022-12-11T05:51:03.658Z,100123.17
2022-12-11T05:52:07.871Z,100124.27
2022-12-11T05:53:12.108Z,100130.33
2022-12-11T05:54:16.337Z,100134.84
2022-12-11T05:55:20.575Z,100137.41
2022-12-11T05:56:25.103Z,100143.05
2022-12-11T05:57:29.347Z,100147.44
2022-12-11T05:58:33.586Z,100149.55
2022-12-11T05:59:37.783Z,100144.05
2022-12-11T06:00:42.073Z,100138.34
2022-12-11T06:01:46.521Z,100132.16
2022-12-11T06:02:51.286Z,100127.16
2022-12-11T06:03:55.941Z,100129.66
2022-12-11T06:05:00.151Z,100127.08
2022-12-11T06:06:04.357Z,100128.05
2022-12-11T06:07:08.581Z,100129.33
2022-12-11T06:08:12.886Z,100129.77
2022-12-11T06:09:17.231Z,100129.59
2022-12-11T06:10:21.457Z,100125.77
2022-12-11T06:11:25.691Z,100127.38
2022-12-11T06:12:29.954Z,100127.05
2022-12-11T06:13:34.173Z,100123.63
2022-12-11T06:14:38.413Z,100130.58
2022-12-11T06:15:42.637Z,100129.1
2022-12-11T06:16:47.020Z,100125.41
2022-12-11T06:17:51.400Z,100128.36
2022-12-11T06:18:59.412Z,100138.15
2022-12-11T06:20:03.645Z,100131.2
2022-12-11T06:21:07.890Z,100134.89
2022-12-11T06:22:12.097Z,100131.39
2022-12-11T06:23:16.382Z,100133.9
2022-12-11T06:24:20.685Z,100133.68
2022-12-11T06:25:24.888Z,100123.88
2022-12-11T06:26:29.130Z,100134.36
2022-12-11T06:27:33.377Z,100130.36
2022-12-11T06:28:37.609Z,100133.86
2022-12-11T06:29:41.839Z,100131.38
2022-12-11T06:30:46.066Z,100127.1
2022-12-11T06:31:50.385Z,100120.32
2022-12-11T06:32:54.780Z,100121.88
2022-12-11T06:33:59.029Z,100124.23
2022-12-11T06:35:03.287Z,100127.16
2022-12-11T06:36:07.499Z,100119.8
2022-12-11T06:37:11.768Z,100118.13
2022-12-11T06:38:16.004Z,100121.88
2022-12-11T06:39:20.222Z,100127.52
2022-12-11T06:40:24.442Z,100123.33
2022-12-11T06:41:28.657Z,100128.77
2022-12-11T06:42:32.923Z,100128.36
2022-12-11T06:43:37.184Z,100133.61
2022-12-11T06:44:41.405Z,100135.88
2022-12-11T06:45:45.739Z,100135.2
2022-12-11T06:46:50.054Z,100132.85
2022-12-11T06:47:54.375Z,100133.38
2022-12-11T06:48:58.625Z,100129.77
2022-12-11T06:50:02.846Z,100125.72
2022-12-11T06:51:07.060Z,100125.88
2022-12-11T06:52:18.621Z,100127
2022-12-11T06:53:26.200Z,100123.2
2022-12-11T06:54:30.480Z,100120.19
2022-12-11T06:55:34.701Z,100122.66
2022-12-11T06:56:38.921Z,100120.66
2022-12-11T06:57:43.208Z,100123.22
2022-12-11T06:58:47.435Z,100122.37
2022-12-11T06:59:51.685Z,100118.7
2022-12-11T07:00:56.000Z,100111
2022-12-11T07:02:00.551Z,100112.75
2022-12-11T07:03:04.867Z,100113.34
2022-12-11T07:04:09.090Z,100116.62
2022-12-11T07:05:13.812Z,100115.04
2022-12-11T07:06:18.207Z,100120.45
2022-12-11T07:07:22.500Z,100120.32
2022-12-11T07:08:26.780Z,100119.88
2022-12-11T07:09:31.113Z,100123.41
2022-12-11T07:10:35.339Z,100129.38
2022-12-11T07:11:39.562Z,100139.92
2022-12-11T07:12:43.836Z,100128.13
2022-12-11T07:13:48.121Z,100138.27
2022-12-11T07:14:52.329Z,100146.23
2022-12-11T07:15:56.553Z,100139.61
2022-12-11T07:17:03.068Z,100142.81
2022-12-11T07:18:07.315Z,100145.58
2022-12-11T07:19:11.527Z,100141.63
2022-12-11T07:20:15.764Z,100139.96
2022-12-11T07:21:19.997Z,100146.77
2022-12-11T07:22:24.206Z,100137.39
2022-12-11T07:23:28.549Z,100137.22
2022-12-11T07:24:32.791Z,100134.73
2022-12-11T07:25:37.021Z,100136.63
2022-12-11T07:26:41.497Z,100139.49
2022-12-11T07:27:45.703Z,100136.63
2022-12-11T07:28:49.956Z,100128.58
2022-12-11T07:29:54.177Z,100124.3
2022-12-11T07:30:58.385Z,100124.54
2022-12-11T07:32:02.925Z,100123.95
2022-12-11T07:33:07.688Z,100122.14
2022-12-11T07:34:12.189Z,100116.51
2022-12-11T07:35:16.393Z,100113.92
2022-12-11T07:36:20.630Z,100114.27
2022-12-11T07:37:24.882Z,100123.61
2022-12-11T07:38:29.113Z,100117.33
2022-12-11T07:39:33.338Z,100115.77
2022-12-11T07:40:37.811Z,100124.14
2022-12-11T07:41:42.029Z,100121.95
2022-12-11T07:42:47.431Z,100127.32
2022-12-11T07:43:51.680Z,100125.05
2022-12-11T07:44:55.907Z,100134.44
2022-12-11T07:46:00.234Z,100131.67
2022-12-11T07:47:04.508Z,100139.2
2022-12-11T07:48:08.750Z,100138.98
2022-12-11T07:49:13.105Z,100144.84
2022-12-11T07:50:17.308Z,100149.47
2022-12-11T07:51:21.814Z,100150.16
2022-12-11T07:52:26.037Z,100147.63
2022-12-11T07:53:30.282Z,100145.64
2022-12-11T07:54:34.525Z,100151.61
2022-12-11T07:55:38.776Z,100144.16
2022-12-11T07:56:46.486Z,100141.83
2022-12-11T07:57:56.999Z,100145.2
2022-12-11T07:59:01.224Z,100144.59
2022-12-11T08:00:05.457Z,100144.73
2022-12-11T08:01:09.806Z,100145.28
2022-12-11T08:02:14.198Z,100142.44
2022-12-11T08:03:18.519Z,100138.44
2022-12-11T08:04:22.729Z,100136.63
2022-12-11T08:05:26.938Z,100134.83
2022-12-11T08:06:31.169Z,100146.64
2022-12-11T08:07:35.417Z,100130.44
2022-12-11T08:08:39.630Z,100143.52
2022-12-11T08:09:43.868Z,100144.09
2022-12-11T08:10:48.098Z,100147.35
2022-12-11T08:11:52.345Z,100154.7
2022-12-11T08:12:56.610Z,100151.7
2022-12-11T08:14:00.842Z,100152.56
2022-12-11T08:15:05.049Z,100155
2022-12-11T08:16:09.258Z,100150.98
2022-12-11T08:17:13.472Z,100148.81
2022-12-11T08:18:17.729Z,100137.16
2022-12-11T08:19:21.942Z,100140.85
2022-12-11T08:20:26.299Z,100127.64
2022-12-11T08:21:30.546Z,100123.62
2022-12-11T08:22:34.764Z,100124.38
2022-12-11T08:23:39.005Z,100123.06
2022-12-11T08:24:43.239Z,100117.86
2022-12-11T08:25:47.470Z,100112.84
2022-12-11T08:26:51.703Z,100110.96
2022-12-11T08:27:55.943Z,100107.84
2022-12-11T08:29:00.184Z,100105.59
2022-12-11T08:30:04.418Z,100101.66
2022-12-11T08:31:08.977Z,100101.93
2022-12-11T08:32:13.684Z,100101.59
2022-12-11T08:33:17.889Z,100099.41
2022-12-11T08:34:22.128Z,100096.16
2022-12-11T08:35:26.360Z,100094.03
2022-12-11T08:36:30.578Z,100098.37
2022-12-11T08:37:34.842Z,100089.25
2022-12-11T08:38:39.061Z,100086.81
2022-12-11T08:39:43.294Z,100090.21
2022-12-11T08:40:50.522Z,100086.91
2022-12-11T08:41:54.731Z,100085.67
2022-12-11T08:42:58.972Z,100092.63
2022-12-11T08:44:05.465Z,100093.26
2022-12-11T08:45:15.089Z,100088.36
2022-12-11T08:46:19.452Z,100090.68
2022-12-11T08:47:23.947Z,100094.95
2022-12-11T08:48:28.168Z,100096.38
2022-12-11T08:49:35.672Z,100105.19
2022-12-11T08:50:39.890Z,100101.93
2022-12-11T08:51:44.147Z,100100.92
2022-12-11T08:52:48.375Z,100098.4
2022-12-11T08:53:52.612Z,100104.89
2022-12-11T08:54:56.841Z,100097.41
2022-12-11T08:56:01.152Z,100099.77
2022-12-11T08:57:05.395Z,100103.79
2022-12-11T08:58:09.634Z,100096.34
2022-12-11T08:59:13.864Z,100098.95
2022-12-11T09:00:18.079Z,100102.64
2022-12-11T09:01:22.520Z,100100.45
2022-12-11T09:02:26.967Z,100105.08
2022-12-11T09:03:31.371Z,100104.42
2022-12-11T09:04:35.581Z,100103.69
2022-12-11T09:05:39.795Z,100100.75
2022-12-11T09:06:44.006Z,100106.8
2022-12-11T09:07:48.444Z,100101.68
2022-12-11T09:08:53.919Z,100109.8
2022-12-11T09:09:58.150Z,100104.38
2022-12-11T09:11:02.361Z,100103.31
2022-12-11T09:12:06.594Z,100110.02
2022-12-11T09:13:10.814Z,100101.73
2022-12-11T09:14:15.029Z,100106.35
2022-12-11T09:15:19.269Z,100111.47
2022-12-11T09:16:23.504Z,100104.77
2022-12-11T09:17:27.716Z,100099.81
2022-12-11T09:18:31.954Z,100096.34
2022-12-11T09:19:36.191Z,100100.75
2022-12-11T09:20:40.419Z,100099.73
2022-12-11T09:21:44.677Z,100096.07
2022-12-11T09:22:48.939Z,100097.16
2022-12-11T09:23:53.155Z,100098.92
2022-12-11T09:24:57.371Z,100094.56
2022-12-11T09:26:01.568Z,100097.41
2022-12-11T09:27:05.821Z,100096.92
2022-12-11T09:28:10.079Z,100088.68
2022-12-11T09:29:14.274Z,100095.91
2022-12-11T09:30:18.497Z,100100.28
2022-12-11T09:31:22.899Z,100099.62
2022-12-11T09:32:27.230Z,100103.84
2022-12-11T09:33:31.462Z,100105.09
2022-12-11T09:34:35.669Z,100104.44
2022-12-11T09:35:39.901Z,100103.97
2022-12-11T09:36:44.256Z,100100.11
2022-12-11T09:37:48.554Z,100100.22
2022-12-11T09:38:52.786Z,100090.72
2022-12-11T09:39:57.439Z,100097.7
2022-12-11T09:41:10.310Z,100094.2
2022-12-11T09:42:14.538Z,100098.37
2022-12-11T09:43:18.759Z,100092.03
2022-12-11T09:44:23.007Z,100097.23
2022-12-11T09:45:27.218Z,100087.84
2022-12-11T09:46:37.528Z,100091.87
2022-12-11T09:47:42.033Z,100086.56
2022-12-11T09:48:46.613Z,100083.8
2022-12-11T09:49:50.887Z,100081.59
2022-12-11T09:50:55.118Z,100083.31
2022-12-11T09:51:59.378Z,100076.59
2022-12-11T09:53:03.614Z,100074.13
2022-12-11T09:54:07.851Z,100084.42
2022-12-11T09:55:12.624Z,100082.34
2022-12-11T09:56:17.285Z,100080.06
2022-12-11T09:57:21.520Z,100074.67
2022-12-11T09:58:25.791Z,100083.86
2022-12-11T09:59:30.043Z,100084.84
2022-12-11T10:00:34.291Z,100080.82
2022-12-11T10:01:38.663Z,100074.44
2022-12-11T10:02:43.050Z,100074.03
2022-12-11T10:03:49.642Z,100074.44
2022-12-11T10:04:53.877Z,100076.6
2022-12-11T10:06:05.319Z,100068.62
2022-12-11T10:07:09.712Z,100069.11
2022-12-11T10:08:14.043Z,100066.63
2022-12-11T10:09:18.338Z,100065.17
2022-12-11T10:10:22.538Z,100069.71
2022-12-11T10:11:26.774Z,100061.26
2022-12-11T10:12:31.052Z,100063.45
2022-12-11T10:13:35.269Z,100059.18
2022-12-11T10:14:39.570Z,100057.7
2022-12-11T10:15:44.066Z,100058.39
2022-12-11T10:16:49.412Z,100056.31
2022-12-11T10:17:53.680Z,100053.8
2022-12-11T10:18:59.890Z,100058.02
2022-12-11T10:20:04.135Z,100058.29
2022-12-11T10:21:08.665Z,100059.88
2022-12-11T10:22:12.889Z,100058.45
2022-12-11T10:23:17.192Z,100054.95
2022-12-11T10:25:14.248Z,100051.69
2022-12-11T10:26:18.608Z,100059.08
2022-12-11T10:27:22.832Z,100056.07
2022-12-11T10:28:27.147Z,100055.25
2022-12-11T10:29:31.429Z,100049.78
2022-12-11T10:30:35.796Z,100047.53
2022-12-11T10:31:40.093Z,100048.95
2022-12-11T10:32:44.336Z,100044.94
2022-12-11T10:33:48.593Z,100045.16
2022-12-11T10:34:53.837Z,100041.24
2022-12-11T10:35:58.193Z,100038.89
2022-12-11T10:37:02.444Z,100035.2
2022-12-11T10:38:06.648Z,100033.69
2022-12-11T10:39:10.926Z,100031.13
2022-12-11T10:40:15.150Z,100032.7
2022-12-11T10:41:19.466Z,100037.25
2022-12-11T10:42:23.725Z,100036.07
2022-12-11T10:43:27.932Z,100023.87
2022-12-11T10:44:32.188Z,100027.16
2022-12-11T10:45:36.422Z,100025.05
2022-12-11T10:46:40.709Z,100018.54
2022-12-11T10:47:45.008Z,100020.81
2022-12-11T10:48:49.241Z,100016.95
2022-12-11T10:49:53.481Z,100015.7
2022-12-11T10:50:57.737Z,100011.54
2022-12-11T10:52:01.961Z,100011.67
2022-12-11T10:53:06.195Z,100013.73
2022-12-11T10:54:10.434Z,100008.04
2022-12-11T10:55:14.797Z,100010.85
2022-12-11T10:56:19.022Z,100004.07
2022-12-11T10:57:23.235Z,100006.56
2022-12-11T10:58:27.446Z,99999.25
2022-12-11T10:59:31.657Z,99999.23
2022-12-11T11:00:35.872Z,99994.08
2022-12-11T11:01:40.285Z,99997.19
2022-12-11T11:02:44.728Z,100000.64
2022-12-11T11:03:49.010Z,99992.77
2022-12-11T11:04:53.224Z,99993.66
2022-12-11T11:05:57.440Z,99998.47
2022-12-11T11:07:01.636Z,99996.03
2022-12-11T11:08:06.022Z,99991.41
2022-12-11T11:09:10.283Z,99984.45
2022-12-11T11:10:14.469Z,99987.75
2022-12-11T11:11:18.753Z,99983.32
2022-12-11T11:12:22.977Z,99987.34
2022-12-11T11:13:27.202Z,99982.39
2022-12-11T11:14:31.400Z,99982.5
2022-12-11T11:15:35.620Z,99983.19
2022-12-11T11:16:39.883Z,99980.27
2022-12-11T11:17:55.638Z,99983.47
2022-12-11T11:19:00.259Z,99982.62
2022-12-11T11:20:04.475Z,99983.39
2022-12-11T11:21:08.689Z,99981.52
2022-12-11T11:22:12.898Z,99987.38
2022-12-11T11:23:17.149Z,99978.67
2022-12-11T11:24:21.336Z,99978.95
2022-12-11T11:25:25.523Z,99983.25
2022-12-11T11:27:12.565Z,99983.53
2022-12-11T11:28:17.586Z,99980.52
2022-12-11T11:29:21.783Z,99976.99
2022-12-11T11:30:25.984Z,99982.64
2022-12-11T11:31:30.429Z,99982.28
2022-12-11T11:32:34.871Z,99981.62
2022-12-11T11:33:39.070Z,99982.72
2022-12-11T11:34:43.270Z,99987.15
2022-12-11T11:35:47.463Z,99985.07
2022-12-11T11:36:51.648Z,99988.27
2022-12-11T11:37:55.862Z,99990.19
2022-12-11T11:39:00.108Z,99986.77
2022-12-11T11:40:04.308Z,99983.69
2022-12-11T11:41:15.492Z,99982.42
2022-12-11T11:42:19.670Z,99975.72
2022-12-11T11:43:23.883Z,99970.8
2022-12-11T11:44:28.067Z,99973.89
2022-12-11T11:45:32.260Z,99974.49
2022-12-11T11:46:36.782Z,99973.37
2022-12-11T11:47:41.214Z,99968.73
2022-12-11T11:48:45.420Z,99967.48
2022-12-11T11:49:49.613Z,99974.92
2022-12-11T11:50:53.902Z,99973.74
2022-12-11T11:51:58.106Z,99966.47
2022-12-11T11:53:02.334Z,99967.89
2022-12-11T11:54:06.501Z,99967.64
2022-12-11T11:55:11.948Z,99969.84
2022-12-11T11:56:20.557Z,99968.25
2022-12-11T11:57:24.763Z,99969.13
2022-12-11T11:58:28.946Z,99959.31
2022-12-11T11:59:33.124Z,99966.45
2022-12-11T12:00:37.330Z,99965.11
2022-12-11T12:01:41.545Z,99955.56
2022-12-11T12:02:45.818Z,99955.56
2022-12-11T12:03:50.124Z,99950.56
2022-12-11T12:04:54.322Z,99952.1
2022-12-11T12:05:58.493Z,99950.48
2022-12-11T12:07:02.679Z,99947.06
2022-12-11T12:08:07.020Z,99944.52
2022-12-11T12:09:11.269Z,99949.5
2022-12-11T12:10:15.599Z,99944.83
2022-12-11T12:11:19.780Z,99944.83
2022-12-11T12:12:33.724Z,99941.87
2022-12-11T12:13:53.524Z,99938.14
2022-12-11T12:14:57.805Z,99939.53
2022-12-11T12:16:02.184Z,99938.44
2022-12-11T12:17:10.417Z,99935.03
2022-12-11T12:18:14.690Z,99934.34
2022-12-11T12:19:19.263Z,99934.22
2022-12-11T12:20:23.449Z,99930.32
2022-12-11T12:21:27.634Z,99938.28